createdAt,value
2019-05-28T00:02:47.271Z,3.08
2019-05-28T00:07:51.499Z,3.00
2019-05-28T00:12:54.979Z,3.58
2019-05-28T00:17:58.532Z,3.47
2019-05-28T00:23:02.022Z,2.70
2019-05-28T00:28:05.623Z,3.17
2019-05-28T00:33:09.172Z,3.20
2019-05-28T00:38:12.576Z,3.20
2019-05-28T00:43:16.073Z,3.10
2019-05-28T00:48:19.612Z,3.65
2019-05-28T00:53:23.092Z,3.17
2019-05-28T00:58:26.743Z,3.62
2019-05-28T01:03:30.144Z,3.37
2019-05-28T01:08:33.844Z,3.58
2019-05-28T01:13:37.387Z,3.52
2019-05-28T01:18:40.782Z,3.87
2019-05-28T01:23:45.801Z,3.55
2019-05-28T01:28:50.340Z,3.55
2019-05-28T01:33:53.766Z,3.67
2019-05-28T01:38:57.326Z,3.90
2019-05-28T01:44:00.716Z,3.72
2019-05-28T01:49:04.145Z,3.62
2019-05-28T01:54:09.570Z,3.55
2019-05-28T01:59:12.768Z,3.35
2019-05-28T02:04:16.318Z,3.45
2019-05-28T02:09:19.801Z,3.85
2019-05-28T02:14:23.341Z,3.42
2019-05-28T02:19:26.829Z,3.42
2019-05-28T02:24:30.251Z,3.67
2019-05-28T02:29:33.679Z,3.75
2019-05-28T02:34:37.605Z,3.17
2019-05-28T02:39:41.038Z,3.33
2019-05-28T02:44:44.607Z,3.47
2019-05-28T02:49:48.064Z,3.45
2019-05-28T02:54:51.505Z,3.65
2019-05-28T02:59:55.047Z,3.52
2019-05-28T03:04:58.496Z,3.62
2019-05-28T03:10:03.402Z,3.50
2019-05-28T03:15:10.121Z,3.52
2019-05-28T03:20:14.210Z,3.77
2019-05-28T03:25:17.743Z,3.50
2019-05-28T03:30:21.276Z,3.10
2019-05-28T03:35:24.756Z,3.45
2019-05-28T03:40:37.315Z,3.22
2019-05-28T03:45:40.929Z,3.92
2019-05-28T03:50:44.514Z,4.05
2019-05-28T03:55:48.063Z,4.28
2019-05-28T04:00:51.572Z,3.80
2019-05-28T04:05:55.091Z,4.08
2019-05-28T04:10:58.529Z,5.55
2019-05-28T04:16:02.410Z,4.62
2019-05-28T04:21:06.017Z,4.85
2019-05-28T04:26:09.467Z,4.80
2019-05-28T04:31:12.926Z,4.62
2019-05-28T04:36:16.403Z,3.98
2019-05-28T04:41:19.856Z,4.58
2019-05-28T04:46:23.332Z,4.70
2019-05-28T04:51:26.929Z,4.70
2019-05-28T04:56:30.503Z,5.08
2019-05-28T05:01:33.989Z,4.00
2019-05-28T05:06:37.531Z,4.95
2019-05-28T05:11:40.958Z,3.80
2019-05-28T05:16:44.492Z,3.60
2019-05-28T05:21:47.887Z,4.08
2019-05-28T05:26:53.092Z,4.08
2019-05-28T05:31:56.912Z,4.50
2019-05-28T05:37:00.359Z,3.12
2019-05-28T05:42:03.906Z,2.90
2019-05-28T05:47:07.418Z,3.25
2019-05-28T05:52:10.881Z,3.22
2019-05-28T05:57:14.353Z,3.42
2019-05-28T06:02:17.822Z,3.25
2019-05-28T06:07:21.376Z,3.40
2019-05-28T06:12:24.886Z,3.10
2019-05-28T06:17:28.277Z,4.17
2019-05-28T06:22:31.813Z,4.62
2019-05-28T06:27:35.202Z,4.20
2019-05-28T06:32:38.878Z,4.40
2019-05-28T06:37:42.559Z,3.72
2019-05-28T06:42:45.984Z,3.83
2019-05-28T06:47:49.563Z,4.10
2019-05-28T06:52:53.102Z,3.75
2019-05-28T06:57:56.580Z,3.83
2019-05-28T07:03:00.102Z,3.92
2019-05-28T07:08:03.617Z,3.45
2019-05-28T07:13:09.067Z,3.42
2019-05-28T07:18:12.583Z,3.77
2019-05-28T07:23:16.101Z,3.50
2019-05-28T07:28:19.614Z,3.80
2019-05-28T07:33:23.037Z,3.60
2019-05-28T07:38:26.544Z,3.80
2019-05-28T07:43:29.971Z,3.87
2019-05-28T07:48:33.474Z,2.87
2019-05-28T07:53:40.436Z,3.22
2019-05-28T07:58:42.087Z,3.12
2019-05-28T08:03:45.679Z,3.17
2019-05-28T08:08:49.945Z,2.92
2019-05-28T08:13:53.428Z,3.15
2019-05-28T08:18:57.010Z,2.42
2019-05-28T08:24:00.473Z,2.87
2019-05-28T08:29:04.042Z,2.70
2019-05-28T08:34:07.554Z,2.70
2019-05-28T08:39:11.061Z,3.12
2019-05-28T08:44:14.500Z,2.60
2019-05-28T08:49:17.988Z,3.02
2019-05-28T08:54:21.414Z,3.00
2019-05-28T08:59:25.052Z,2.90
2019-05-28T09:04:28.652Z,2.83
2019-05-28T09:09:32.179Z,3.00
2019-05-28T09:14:55.157Z,3.40
2019-05-28T09:19:40.847Z,3.25
2019-05-28T09:24:44.358Z,2.72
2019-05-28T09:29:47.840Z,2.58
2019-05-28T09:34:51.263Z,2.95
2019-05-28T09:39:54.769Z,2.70
2019-05-28T09:44:58.203Z,2.95
2019-05-28T09:50:01.932Z,2.55
2019-05-28T09:55:06.411Z,2.52
2019-05-28T10:00:19.802Z,2.80
2019-05-28T10:05:23.277Z,2.45
2019-05-28T10:10:26.767Z,2.98
2019-05-28T10:15:30.216Z,2.30
2019-05-28T10:20:37.732Z,2.70
2019-05-28T10:25:38.761Z,2.65
2019-05-28T10:30:42.266Z,3.10
2019-05-28T10:35:45.770Z,3.10
2019-05-28T10:40:49.224Z,3.27
2019-05-28T10:45:53.159Z,3.33
2019-05-28T10:50:56.868Z,3.12
2019-05-28T10:56:00.331Z,2.92
2019-05-28T11:01:04.986Z,2.17
2019-05-28T11:06:08.391Z,2.47
2019-05-28T11:11:11.834Z,2.65
2019-05-28T11:16:15.344Z,2.42
2019-05-28T11:21:18.768Z,1.77
2019-05-28T11:26:22.342Z,2.40
2019-05-28T11:31:25.852Z,1.90
2019-05-28T11:36:29.276Z,2.85
2019-05-28T11:41:42.176Z,2.17
2019-05-28T11:46:37.847Z,1.90
2019-05-28T11:51:41.376Z,1.87
2019-05-28T11:56:44.894Z,2.08
2019-05-28T12:01:48.314Z,2.55
2019-05-28T12:06:51.833Z,2.12
2019-05-28T12:11:55.300Z,2.27
2019-05-28T12:16:58.735Z,2.30
2019-05-28T12:22:02.225Z,2.05
2019-05-28T12:27:05.741Z,2.45
2019-05-28T12:32:10.416Z,1.90
2019-05-28T12:37:14.435Z,1.80
2019-05-28T12:42:17.866Z,2.10
2019-05-28T12:47:21.327Z,2.15
2019-05-28T12:52:24.840Z,2.10
2019-05-28T12:57:28.266Z,1.90
2019-05-28T13:02:31.799Z,1.60
2019-05-28T13:07:35.200Z,2.05
2019-05-28T13:12:38.727Z,1.70
2019-05-28T13:17:42.210Z,1.75
2019-05-28T13:22:45.630Z,1.87
2019-05-28T13:27:49.140Z,1.60
2019-05-28T13:32:52.777Z,1.80
2019-05-28T13:37:56.464Z,1.90
2019-05-28T13:43:00.027Z,2.15
2019-05-28T13:48:03.416Z,2.80
2019-05-28T13:53:06.856Z,2.12
2019-05-28T13:58:10.325Z,1.77
2019-05-28T14:03:13.934Z,2.00
2019-05-28T14:08:19.694Z,2.77
2019-05-28T14:13:22.854Z,2.90
2019-05-28T14:18:26.423Z,2.58
2019-05-28T14:23:29.943Z,3.12
2019-05-28T14:28:33.453Z,2.92
2019-05-28T14:33:36.974Z,2.75
2019-05-28T14:38:40.486Z,3.30
2019-05-28T14:43:43.996Z,4.28
2019-05-28T14:48:48.649Z,3.80
2019-05-28T14:53:52.254Z,3.98
2019-05-28T14:58:55.724Z,4.22
2019-05-28T15:03:59.281Z,4.20
2019-05-28T15:09:19.140Z,4.40
2019-05-28T15:14:07.853Z,3.92
2019-05-28T15:19:11.324Z,4.67
2019-05-28T15:24:14.902Z,10.63
2019-05-28T15:29:18.388Z,33.40
2019-05-28T15:34:21.928Z,44.85
2019-05-28T15:39:39.191Z,51.95
2019-05-28T15:44:30.564Z,49.63
2019-05-28T15:49:34.085Z,48.02
2019-05-28T15:54:37.522Z,42.45
2019-05-28T15:59:40.986Z,36.33
2019-05-28T16:04:44.569Z,37.03
2019-05-28T16:09:56.287Z,32.67
2019-05-28T16:14:53.235Z,28.15
2019-05-28T16:19:58.683Z,26.97
2019-05-28T16:25:01.896Z,22.70
2019-05-28T16:30:09.170Z,20.10
2019-05-28T16:35:12.638Z,21.17
2019-05-28T16:40:16.621Z,19.82
2019-05-28T16:45:20.391Z,17.30
2019-05-28T16:50:23.907Z,16.42
2019-05-28T16:55:27.313Z,15.80
2019-05-28T17:00:30.904Z,15.58
2019-05-28T17:05:34.366Z,15.53
2019-05-28T17:10:37.953Z,14.20
2019-05-28T17:15:41.394Z,13.30
2019-05-28T17:20:44.859Z,12.58
2019-05-28T17:25:48.395Z,12.40
2019-05-28T17:30:51.822Z,12.47
2019-05-28T17:35:57.374Z,12.95
2019-05-28T17:41:00.474Z,11.35
2019-05-28T17:46:03.982Z,11.60
2019-05-28T17:51:07.473Z,12.25
2019-05-28T17:56:10.990Z,10.65
2019-05-28T18:01:14.424Z,11.25
2019-05-28T18:06:17.939Z,9.03
2019-05-28T18:11:21.354Z,10.18
2019-05-28T18:16:24.866Z,11.25
2019-05-28T18:21:28.348Z,9.55
2019-05-28T18:26:31.793Z,9.13
2019-05-28T18:31:35.405Z,8.85
2019-05-28T18:36:38.858Z,8.65
2019-05-28T18:41:42.299Z,9.85
2019-05-28T18:46:45.847Z,8.23
2019-05-28T18:51:49.340Z,7.85
2019-05-28T18:56:52.853Z,8.30
2019-05-28T19:01:58.941Z,8.90
2019-05-28T19:07:01.558Z,7.37
2019-05-28T19:12:05.158Z,8.00
2019-05-28T19:17:08.565Z,8.00
2019-05-28T19:22:12.032Z,7.17
2019-05-28T19:27:15.610Z,7.60
2019-05-28T19:32:19.076Z,7.12
2019-05-28T19:37:22.597Z,6.30
2019-05-28T19:42:26.214Z,6.33
2019-05-28T19:47:29.915Z,7.15
2019-05-28T19:52:33.474Z,6.10
2019-05-28T19:57:36.889Z,6.40
2019-05-28T20:02:40.345Z,7.33
2019-05-28T20:07:43.914Z,5.95
2019-05-28T20:12:47.469Z,6.72
2019-05-28T20:17:52.404Z,6.28
2019-05-28T20:22:56.246Z,6.12
2019-05-28T20:27:59.815Z,6.40
2019-05-28T20:33:03.326Z,5.85
2019-05-28T20:38:09.648Z,6.42
2019-05-28T20:43:11.856Z,5.70
2019-05-28T20:48:16.670Z,5.65
2019-05-28T20:53:34.998Z,6.80
2019-05-28T20:58:39.296Z,5.87
2019-05-28T21:03:30.555Z,5.22
2019-05-28T21:08:34.049Z,5.70
2019-05-28T21:13:37.525Z,5.08
2019-05-28T21:18:41.067Z,5.60
2019-05-28T21:23:44.545Z,5.72
2019-05-28T21:28:48.098Z,5.53
2019-05-28T21:33:52.773Z,5.65
2019-05-28T21:38:57.292Z,5.15
2019-05-28T21:44:02.064Z,5.30
2019-05-28T21:49:05.830Z,5.40
2019-05-28T21:54:09.303Z,5.45
2019-05-28T21:59:15.697Z,5.05
2019-05-28T22:04:19.227Z,5.67
2019-05-28T22:09:22.760Z,5.30
2019-05-28T22:14:26.294Z,6.05
2019-05-28T22:19:29.894Z,5.62
2019-05-28T22:24:33.432Z,5.78
2019-05-28T22:29:36.870Z,4.85
2019-05-28T22:34:40.438Z,5.15
2019-05-28T22:39:43.954Z,4.30
2019-05-28T22:44:47.353Z,4.90
2019-05-28T22:49:50.874Z,5.12
2019-05-28T22:54:54.327Z,4.55
2019-05-28T22:59:58.400Z,4.50
2019-05-28T23:05:03.061Z,4.03
2019-05-28T23:10:07.876Z,3.87
2019-05-28T23:15:11.509Z,4.97
2019-05-28T23:20:16.742Z,4.35
2019-05-28T23:25:20.168Z,3.77
2019-05-28T23:30:25.395Z,4.55
2019-05-28T23:35:28.772Z,3.80
2019-05-28T23:40:32.260Z,3.98
2019-05-28T23:45:35.778Z,4.40
2019-05-28T23:50:39.204Z,4.10
2019-05-28T23:55:44.560Z,4.15
